createdAt,value
2019-03-26T00:01:17.770Z,50.73
2019-03-26T00:03:46.687Z,46.50
2019-03-26T00:06:15.505Z,43.93
2019-03-26T00:08:44.345Z,47.17
2019-03-26T00:11:13.203Z,43.40
2019-03-26T00:13:42.134Z,35.67
2019-03-26T00:16:11.855Z,39.90
2019-03-26T00:18:40.764Z,46.87
2019-03-26T00:21:09.740Z,47.00
2019-03-26T00:23:38.575Z,42.60
2019-03-26T00:26:07.423Z,43.73
2019-03-26T00:28:36.140Z,52.17
2019-03-26T00:31:04.913Z,51.57
2019-03-26T00:33:36.541Z,49.87
2019-03-26T00:36:04.211Z,52.33
2019-03-26T00:38:32.951Z,56.93
2019-03-26T00:41:01.777Z,55.90
2019-03-26T00:43:30.428Z,51.23
2019-03-26T00:45:59.253Z,52.53
2019-03-26T00:48:28.085Z,52.30
2019-03-26T00:50:56.771Z,54.83
2019-03-26T00:53:25.452Z,52.40
2019-03-26T00:55:54.855Z,57.33
2019-03-26T00:58:24.126Z,57.33
2019-03-26T01:00:54.062Z,55.30
2019-03-26T01:03:23.705Z,49.80
2019-03-26T01:05:52.448Z,38.20
2019-03-26T01:08:21.209Z,33.70
2019-03-26T01:10:49.959Z,30.43
2019-03-26T01:13:18.806Z,34.73
2019-03-26T01:15:47.559Z,31.43
2019-03-26T01:18:16.337Z,35.73
2019-03-26T01:20:45.117Z,35.03
2019-03-26T01:23:13.790Z,44.87
2019-03-26T01:25:42.604Z,49.73
2019-03-26T01:28:11.434Z,53.73
2019-03-26T01:30:40.273Z,61.17
2019-03-26T01:33:09.056Z,54.73
2019-03-26T01:35:37.814Z,55.93
2019-03-26T01:38:06.632Z,60.73
2019-03-26T01:40:35.609Z,50.40
2019-03-26T01:43:04.374Z,50.67
2019-03-26T01:45:33.041Z,53.07
2019-03-26T01:48:01.909Z,49.67
2019-03-26T01:50:30.657Z,47.53
2019-03-26T01:52:59.382Z,36.97
2019-03-26T01:55:28.219Z,38.13
2019-03-26T01:57:57.150Z,38.40
2019-03-26T02:00:25.920Z,32.73
2019-03-26T02:02:54.638Z,31.23
2019-03-26T02:05:23.692Z,27.53
2019-03-26T02:07:52.516Z,25.70
2019-03-26T02:10:21.518Z,25.27
2019-03-26T02:12:50.191Z,24.70
2019-03-26T02:15:24.589Z,19.53
2019-03-26T02:17:53.362Z,21.20
2019-03-26T02:20:22.277Z,23.20
2019-03-26T02:22:50.993Z,21.67
2019-03-26T02:25:19.838Z,24.07
2019-03-26T02:27:50.551Z,22.77
2019-03-26T02:30:19.050Z,23.53
2019-03-26T02:32:47.932Z,27.53
2019-03-26T02:35:18.840Z,26.50
2019-03-26T02:37:46.994Z,23.40
2019-03-26T02:40:15.690Z,22.23
2019-03-26T02:42:44.433Z,21.67
2019-03-26T02:45:13.311Z,19.63
2019-03-26T02:47:42.169Z,26.83
2019-03-26T02:50:11.229Z,26.57
2019-03-26T02:52:40.022Z,19.93
2019-03-26T02:55:09.126Z,21.20
2019-03-26T02:57:38.038Z,22.77
2019-03-26T03:00:09.646Z,22.50
2019-03-26T03:02:38.469Z,22.47
2019-03-26T03:05:07.482Z,21.30
2019-03-26T03:07:36.288Z,24.60
2019-03-26T03:10:06.919Z,28.07
2019-03-26T03:12:35.756Z,30.03
2019-03-26T03:15:05.794Z,24.07
2019-03-26T03:17:34.756Z,26.43
2019-03-26T03:20:04.603Z,30.27
2019-03-26T03:22:33.383Z,34.23
2019-03-26T03:25:02.131Z,37.80
2019-03-26T03:27:31.139Z,35.47
2019-03-26T03:29:59.967Z,39.83
2019-03-26T03:32:28.826Z,37.37
2019-03-26T03:34:57.605Z,43.10
2019-03-26T03:37:26.356Z,43.63
2019-03-26T03:39:55.219Z,42.93
2019-03-26T03:42:24.091Z,45.53
2019-03-26T03:44:52.965Z,46.23
2019-03-26T03:47:23.927Z,55.33
2019-03-26T03:49:53.452Z,59.03
2019-03-26T03:52:24.294Z,45.97
2019-03-26T03:54:54.039Z,34.67
2019-03-26T03:57:25.645Z,29.53
2019-03-26T03:59:56.171Z,28.80
2019-03-26T04:02:24.930Z,28.43
2019-03-26T04:04:53.948Z,26.90
2019-03-26T04:07:22.698Z,25.03
2019-03-26T04:09:51.640Z,24.67
2019-03-26T04:12:20.600Z,25.23
2019-03-26T04:14:49.454Z,21.43
2019-03-26T04:17:18.308Z,21.67
2019-03-26T04:19:47.007Z,18.73
2019-03-26T04:22:15.828Z,19.97
2019-03-26T04:24:44.649Z,21.67
2019-03-26T04:27:13.370Z,19.93
2019-03-26T04:29:42.148Z,18.40
2019-03-26T04:32:11.004Z,17.90
2019-03-26T04:34:39.781Z,21.43
2019-03-26T04:37:08.568Z,22.67
2019-03-26T04:39:37.311Z,20.47
2019-03-26T04:42:06.033Z,22.57
2019-03-26T04:44:34.823Z,19.67
2019-03-26T04:47:03.675Z,17.97
2019-03-26T04:49:32.441Z,23.57
2019-03-26T04:52:01.268Z,22.10
2019-03-26T04:54:30.140Z,25.33
2019-03-26T04:56:59.007Z,26.93
2019-03-26T04:59:27.676Z,25.97
2019-03-26T05:01:56.427Z,27.03
2019-03-26T05:04:25.264Z,25.00
2019-03-26T05:06:53.966Z,26.77
2019-03-26T05:09:22.839Z,26.23
2019-03-26T05:11:51.642Z,28.93
2019-03-26T05:14:20.459Z,23.13
2019-03-26T05:16:49.193Z,27.23
2019-03-26T05:19:17.887Z,26.40
2019-03-26T05:21:46.607Z,27.37
2019-03-26T05:24:15.503Z,22.37
2019-03-26T05:26:44.268Z,23.23
2019-03-26T05:29:13.106Z,25.17
2019-03-26T05:31:42.098Z,23.77
2019-03-26T05:34:10.998Z,25.77
2019-03-26T05:36:50.576Z,25.07
2019-03-26T05:39:10.244Z,26.83
2019-03-26T05:41:39.086Z,27.23
2019-03-26T05:44:07.780Z,26.33
2019-03-26T05:46:36.573Z,28.90
2019-03-26T05:49:05.231Z,30.33
2019-03-26T05:51:46.369Z,29.93
2019-03-26T05:54:15.097Z,26.37
2019-03-26T05:56:43.876Z,26.77
2019-03-26T05:59:12.874Z,26.33
2019-03-26T06:01:41.963Z,26.50
2019-03-26T06:04:10.773Z,23.90
2019-03-26T06:06:39.644Z,25.10
2019-03-26T06:09:08.340Z,24.97
2019-03-26T06:11:37.298Z,24.10
2019-03-26T06:14:06.156Z,22.90
2019-03-26T06:16:38.680Z,25.50
2019-03-26T06:19:05.395Z,22.77
2019-03-26T06:21:34.125Z,32.47
2019-03-26T06:24:03.032Z,26.97
2019-03-26T06:26:31.810Z,20.07
2019-03-26T06:29:01.332Z,18.10
2019-03-26T06:31:30.474Z,15.37
2019-03-26T06:33:59.282Z,19.53
2019-03-26T06:36:28.150Z,18.57
2019-03-26T06:38:56.961Z,15.10
2019-03-26T06:41:25.762Z,17.50
2019-03-26T06:43:54.528Z,21.40
2019-03-26T06:46:23.345Z,17.30
2019-03-26T06:48:52.078Z,19.67
2019-03-26T06:51:20.781Z,17.07
2019-03-26T06:54:01.490Z,17.07
2019-03-26T06:56:30.574Z,15.83
2019-03-26T06:58:59.351Z,17.70
2019-03-26T07:01:28.128Z,18.77
2019-03-26T07:03:57.378Z,21.53
2019-03-26T07:06:26.172Z,17.43
2019-03-26T07:08:55.065Z,18.57
2019-03-26T07:11:23.978Z,16.03
2019-03-26T07:13:52.759Z,15.00
2019-03-26T07:16:21.498Z,15.40
2019-03-26T07:18:50.569Z,15.03
2019-03-26T07:21:19.372Z,15.07
2019-03-26T07:23:48.179Z,15.90
2019-03-26T07:26:16.950Z,14.33
2019-03-26T07:28:45.750Z,15.87
2019-03-26T07:31:14.430Z,17.43
2019-03-26T07:33:43.214Z,17.17
2019-03-26T07:36:11.978Z,25.03
2019-03-26T07:38:40.722Z,15.73
2019-03-26T07:41:09.531Z,15.07
2019-03-26T07:43:38.406Z,14.63
2019-03-26T07:46:07.105Z,16.03
2019-03-26T07:48:35.869Z,14.40
2019-03-26T07:51:04.685Z,15.10
2019-03-26T07:53:33.508Z,17.47
2019-03-26T07:56:15.039Z,16.87
2019-03-26T07:58:43.907Z,15.40
2019-03-26T08:01:12.723Z,14.10
2019-03-26T08:03:41.652Z,13.27
2019-03-26T08:06:10.357Z,15.23
2019-03-26T08:08:40.662Z,15.00
2019-03-26T08:11:09.515Z,13.60
2019-03-26T08:13:40.938Z,28.77
2019-03-26T08:16:08.611Z,10.03
2019-03-26T08:18:37.376Z,10.10
2019-03-26T08:21:06.402Z,10.80
2019-03-26T08:23:38.256Z,10.13
2019-03-26T08:26:05.779Z,8.27
2019-03-26T08:28:34.564Z,9.73
2019-03-26T08:31:03.323Z,9.53
2019-03-26T08:33:32.172Z,13.03
2019-03-26T08:36:00.909Z,7.50
2019-03-26T08:38:29.793Z,16.33
2019-03-26T08:40:58.692Z,9.07
2019-03-26T08:43:27.493Z,9.87
2019-03-26T08:45:56.428Z,7.30
2019-03-26T08:48:25.290Z,7.27
2019-03-26T08:50:54.111Z,7.73
2019-03-26T08:53:22.831Z,7.90
2019-03-26T08:55:51.593Z,10.10
2019-03-26T08:58:32.134Z,9.03
2019-03-26T09:01:01.016Z,10.70
2019-03-26T09:03:30.085Z,9.87
2019-03-26T09:05:59.010Z,11.47
2019-03-26T09:08:27.805Z,10.63
2019-03-26T09:10:56.510Z,9.50
2019-03-26T09:13:25.579Z,13.43
2019-03-26T09:15:54.334Z,11.83
2019-03-26T09:18:23.203Z,10.33
2019-03-26T09:20:51.979Z,10.97
2019-03-26T09:23:20.939Z,10.53
2019-03-26T09:25:49.794Z,12.43
2019-03-26T09:28:18.630Z,9.70
2019-03-26T09:30:47.379Z,11.67
2019-03-26T09:33:16.074Z,7.67
2019-03-26T09:35:44.872Z,6.40
2019-03-26T09:38:13.786Z,6.83
2019-03-26T09:40:42.476Z,9.53
2019-03-26T09:43:11.375Z,8.77
2019-03-26T09:45:40.069Z,9.27
2019-03-26T09:48:08.902Z,8.57
2019-03-26T09:50:37.863Z,10.57
2019-03-26T09:53:06.643Z,9.00
2019-03-26T09:55:35.371Z,22.10
2019-03-26T09:58:04.193Z,8.67
2019-03-26T10:00:44.730Z,8.77
2019-03-26T10:03:13.654Z,20.23
2019-03-26T10:05:42.392Z,6.80
2019-03-26T10:08:11.387Z,10.50
2019-03-26T10:10:40.171Z,5.80
2019-03-26T10:13:08.982Z,4.73
2019-03-26T10:15:37.734Z,5.40
2019-03-26T10:18:06.670Z,5.90
2019-03-26T10:20:35.506Z,4.90
2019-03-26T10:23:04.381Z,5.37
2019-03-26T10:25:33.126Z,3.77
2019-03-26T10:28:01.887Z,5.30
2019-03-26T10:30:38.285Z,3.27
2019-03-26T10:33:07.635Z,4.27
2019-03-26T10:35:36.897Z,4.73
2019-03-26T10:38:05.863Z,5.93
2019-03-26T10:40:39.301Z,7.67
2019-03-26T10:43:08.353Z,4.50
2019-03-26T10:45:37.246Z,4.33
2019-03-26T10:48:06.025Z,4.10
2019-03-26T10:50:34.852Z,5.10
2019-03-26T10:53:03.716Z,6.43
2019-03-26T10:55:32.346Z,8.10
2019-03-26T10:58:01.290Z,7.30
2019-03-26T11:00:30.127Z,6.00
2019-03-26T11:03:10.489Z,12.57
2019-03-26T11:05:39.209Z,9.77
2019-03-26T11:08:07.864Z,5.60
2019-03-26T11:10:36.619Z,8.97
2019-03-26T11:13:05.380Z,14.30
2019-03-26T11:15:34.148Z,7.93
2019-03-26T11:18:02.869Z,11.93
2019-03-26T11:20:31.716Z,4.57
2019-03-26T11:23:00.463Z,5.50
2019-03-26T11:25:30.315Z,6.40
2019-03-26T11:27:59.300Z,9.20
2019-03-26T11:30:28.038Z,13.23
2019-03-26T11:32:56.715Z,7.07
2019-03-26T11:35:25.511Z,13.27
2019-03-26T11:37:54.359Z,15.57
2019-03-26T11:40:23.276Z,18.37
2019-03-26T11:42:51.994Z,13.80
2019-03-26T11:45:20.908Z,16.27
2019-03-26T11:47:49.761Z,18.87
2019-03-26T11:50:18.925Z,55.20
2019-03-26T11:52:47.735Z,23.97
2019-03-26T11:55:16.648Z,21.00
2019-03-26T11:57:45.435Z,17.43
2019-03-26T12:00:17.988Z,19.77
2019-03-26T12:02:46.818Z,23.13
2019-03-26T12:05:27.199Z,25.90
2019-03-26T12:07:55.923Z,18.43
2019-03-26T12:10:24.676Z,24.00
2019-03-26T12:12:53.500Z,16.03
2019-03-26T12:15:22.245Z,15.57
2019-03-26T12:17:51.175Z,17.13
2019-03-26T12:20:20.070Z,15.83
2019-03-26T12:22:48.820Z,16.17
2019-03-26T12:25:17.626Z,18.67
2019-03-26T12:27:46.694Z,17.07
2019-03-26T12:30:18.571Z,24.67
2019-03-26T12:32:47.288Z,20.17
2019-03-26T12:35:29.928Z,21.77
2019-03-26T12:37:59.567Z,21.70
2019-03-26T12:40:28.372Z,21.60
2019-03-26T12:42:57.343Z,24.60
2019-03-26T12:45:26.255Z,23.63
2019-03-26T12:47:55.048Z,19.73
2019-03-26T12:50:23.992Z,20.77
2019-03-26T12:52:52.704Z,15.40
2019-03-26T12:55:21.642Z,17.30
2019-03-26T12:57:50.677Z,17.77
2019-03-26T13:00:22.454Z,15.83
2019-03-26T13:02:51.382Z,14.00
2019-03-26T13:05:23.111Z,14.57
2019-03-26T13:08:03.479Z,12.63
2019-03-26T13:10:32.643Z,11.77
2019-03-26T13:13:01.474Z,8.40
2019-03-26T13:15:30.513Z,12.37
2019-03-26T13:17:59.514Z,5.53
2019-03-26T13:20:28.324Z,6.93
2019-03-26T13:22:57.290Z,9.23
2019-03-26T13:25:26.083Z,7.23
2019-03-26T13:27:54.933Z,5.20
2019-03-26T13:30:23.794Z,5.20
2019-03-26T13:32:52.675Z,10.87
2019-03-26T13:35:21.563Z,11.73
2019-03-26T13:37:50.260Z,8.17
2019-03-26T13:40:27.102Z,11.20
2019-03-26T13:42:49.658Z,10.33
2019-03-26T13:45:18.463Z,9.70
2019-03-26T13:47:47.339Z,11.10
2019-03-26T13:50:16.226Z,7.03
2019-03-26T13:52:44.955Z,9.70
2019-03-26T13:55:13.920Z,10.33
2019-03-26T13:57:43.163Z,15.90
2019-03-26T14:00:14.189Z,10.23
2019-03-26T14:02:43.297Z,7.53
2019-03-26T14:05:25.763Z,21.87
2019-03-26T14:07:54.682Z,11.93
2019-03-26T14:10:40.932Z,12.60
2019-03-26T14:13:05.914Z,12.40
2019-03-26T14:15:35.049Z,9.73
2019-03-26T14:18:04.370Z,9.40
2019-03-26T14:20:33.433Z,14.40
2019-03-26T14:23:02.268Z,8.90
2019-03-26T14:25:31.730Z,8.87
2019-03-26T14:28:00.827Z,9.60
2019-03-26T14:30:44.148Z,14.47
2019-03-26T14:33:13.298Z,16.93
2019-03-26T14:35:42.275Z,17.87
2019-03-26T14:38:11.326Z,12.57
2019-03-26T14:40:53.522Z,10.47
2019-03-26T14:43:11.339Z,15.10
2019-03-26T14:45:42.331Z,10.73
2019-03-26T14:48:10.668Z,11.77
2019-03-26T14:50:39.706Z,23.70
2019-03-26T14:53:08.894Z,13.07
2019-03-26T14:55:37.705Z,10.57
2019-03-26T14:58:06.606Z,13.10
2019-03-26T15:00:35.427Z,13.40
2019-03-26T15:03:04.132Z,7.87
2019-03-26T15:05:33.102Z,18.33
2019-03-26T15:08:01.998Z,10.57
2019-03-26T15:10:30.943Z,9.17
2019-03-26T15:13:11.669Z,13.30
2019-03-26T15:15:40.567Z,9.07
2019-03-26T15:18:09.460Z,8.77
2019-03-26T15:20:38.255Z,9.27
2019-03-26T15:23:07.091Z,6.47
2019-03-26T15:25:35.834Z,13.87
2019-03-26T15:28:04.770Z,11.17
2019-03-26T15:30:34.167Z,9.73
2019-03-26T15:33:03.075Z,8.57
2019-03-26T15:35:32.014Z,13.83
2019-03-26T15:38:00.942Z,15.57
2019-03-26T15:40:29.755Z,10.87
2019-03-26T15:42:58.615Z,14.03
2019-03-26T15:45:27.675Z,8.03
2019-03-26T15:47:56.688Z,13.13
2019-03-26T15:50:42.357Z,13.27
2019-03-26T15:53:11.240Z,13.73
2019-03-26T15:55:40.628Z,20.27
2019-03-26T15:58:09.735Z,10.97
2019-03-26T16:00:40.061Z,10.87
2019-03-26T16:03:09.205Z,9.63
2019-03-26T16:05:38.052Z,15.67
2019-03-26T16:08:06.849Z,9.50
2019-03-26T16:10:35.660Z,11.90
2019-03-26T16:13:04.544Z,10.73
2019-03-26T16:15:44.239Z,13.07
2019-03-26T16:18:04.517Z,11.30
2019-03-26T16:20:33.394Z,17.43
2019-03-26T16:23:02.113Z,12.30
2019-03-26T16:25:30.890Z,19.57
2019-03-26T16:28:00.256Z,12.10
2019-03-26T16:30:30.746Z,10.83
2019-03-26T16:32:59.662Z,15.60
2019-03-26T16:35:28.572Z,16.00
2019-03-26T16:37:57.390Z,16.90
2019-03-26T16:40:26.233Z,11.97
2019-03-26T16:42:55.102Z,12.30
2019-03-26T16:45:23.964Z,17.10
2019-03-26T16:47:52.836Z,12.47
2019-03-26T16:50:21.840Z,14.23
2019-03-26T16:52:50.748Z,22.67
2019-03-26T16:55:19.578Z,14.20
2019-03-26T16:57:48.519Z,12.33
2019-03-26T17:00:20.479Z,10.30
2019-03-26T17:02:49.511Z,12.97
2019-03-26T17:05:21.414Z,13.83
2019-03-26T17:07:50.270Z,14.60
2019-03-26T17:10:19.065Z,12.13
2019-03-26T17:12:47.967Z,9.27
2019-03-26T17:15:16.892Z,9.97
2019-03-26T17:17:45.651Z,11.67
2019-03-26T17:20:14.632Z,11.07
2019-03-26T17:22:43.536Z,12.00
2019-03-26T17:25:12.312Z,9.03
2019-03-26T17:27:41.050Z,12.03
2019-03-26T17:30:10.468Z,10.90
2019-03-26T17:32:39.178Z,16.03
2019-03-26T17:35:08.366Z,11.40
2019-03-26T17:37:37.131Z,12.37
2019-03-26T17:40:06.150Z,14.13
2019-03-26T17:42:34.891Z,14.57
2019-03-26T17:45:04.555Z,16.17
2019-03-26T17:47:33.357Z,14.27
2019-03-26T17:50:02.220Z,12.57
2019-03-26T17:52:31.059Z,10.20
2019-03-26T17:54:59.894Z,19.63
2019-03-26T17:57:28.864Z,13.87
2019-03-26T17:59:57.621Z,16.17
2019-03-26T18:02:26.500Z,19.53
2019-03-26T18:04:55.398Z,18.03
2019-03-26T18:07:24.163Z,20.77
2019-03-26T18:09:53.105Z,20.33
2019-03-26T18:12:30.753Z,19.70
2019-03-26T18:14:52.198Z,18.13
2019-03-26T18:17:20.981Z,20.97
2019-03-26T18:19:50.370Z,19.47
2019-03-26T18:22:19.079Z,21.97
2019-03-26T18:24:47.963Z,20.60
2019-03-26T18:27:17.135Z,19.27
2019-03-26T18:29:46.063Z,19.43
2019-03-26T18:32:14.742Z,10.50
2019-03-26T18:34:43.789Z,11.43
2019-03-26T18:37:12.693Z,5.17
2019-03-26T18:39:41.643Z,10.50
2019-03-26T18:42:10.497Z,6.90
2019-03-26T18:44:39.395Z,6.60
2019-03-26T18:47:08.181Z,10.13
2019-03-26T18:49:37.270Z,5.87
2019-03-26T18:52:06.075Z,11.10
2019-03-26T18:54:34.869Z,7.77
2019-03-26T18:57:03.684Z,7.50
2019-03-26T18:59:32.748Z,11.70
2019-03-26T19:02:01.551Z,10.23
2019-03-26T19:04:30.301Z,9.97
2019-03-26T19:06:59.248Z,10.20
2019-03-26T19:09:28.049Z,12.90
2019-03-26T19:11:57.056Z,20.73
2019-03-26T19:14:26.193Z,29.73
2019-03-26T19:16:55.062Z,33.37
2019-03-26T19:19:24.081Z,42.10
2019-03-26T19:21:52.968Z,22.60
2019-03-26T19:24:21.819Z,21.90
2019-03-26T19:26:50.783Z,17.73
2019-03-26T19:29:19.619Z,19.43
2019-03-26T19:31:48.570Z,14.23
2019-03-26T19:34:17.681Z,19.77
2019-03-26T19:36:46.603Z,16.13
2019-03-26T19:39:15.493Z,18.83
2019-03-26T19:41:44.276Z,19.63
2019-03-26T19:44:13.007Z,20.33
2019-03-26T19:46:42.018Z,37.50
2019-03-26T19:49:10.968Z,29.43
2019-03-26T19:51:40.042Z,30.90
2019-03-26T19:54:10.482Z,56.77
2019-03-26T19:56:39.447Z,59.40
2019-03-26T19:59:08.500Z,36.27
2019-03-26T20:01:37.785Z,46.77
2019-03-26T20:04:07.050Z,38.83
2019-03-26T20:06:36.312Z,36.07
2019-03-26T20:09:07.396Z,17.30
2019-03-26T20:11:36.548Z,17.23
2019-03-26T20:14:05.469Z,16.83
2019-03-26T20:16:41.706Z,18.77
2019-03-26T20:19:05.249Z,23.57
2019-03-26T20:21:34.330Z,19.67
2019-03-26T20:24:04.315Z,18.80
2019-03-26T20:26:33.167Z,20.47
2019-03-26T20:29:03.225Z,16.83
2019-03-26T20:31:32.158Z,18.50
2019-03-26T20:34:01.007Z,21.87
2019-03-26T20:36:29.861Z,21.10
2019-03-26T20:38:59.130Z,25.43
2019-03-26T20:41:28.375Z,21.13
2019-03-26T20:43:57.480Z,21.33
2019-03-26T20:46:26.219Z,16.97
2019-03-26T20:48:55.201Z,27.83
2019-03-26T20:51:24.316Z,20.17
2019-03-26T20:53:53.596Z,24.30
2019-03-26T20:56:22.604Z,22.70
2019-03-26T20:58:51.665Z,21.43
2019-03-26T21:01:20.582Z,19.50
2019-03-26T21:03:49.467Z,21.43
2019-03-26T21:06:18.395Z,21.03
2019-03-26T21:08:47.375Z,18.50
2019-03-26T21:11:16.634Z,23.23
2019-03-26T21:13:50.893Z,20.77
2019-03-26T21:16:16.809Z,24.10
2019-03-26T21:18:45.788Z,27.57
2019-03-26T21:21:14.788Z,20.33
2019-03-26T21:23:43.790Z,24.57
2019-03-26T21:26:12.822Z,24.37
2019-03-26T21:28:41.940Z,22.80
2019-03-26T21:31:10.735Z,26.47
2019-03-26T21:33:39.499Z,29.13
2019-03-26T21:36:08.297Z,21.13
2019-03-26T21:38:37.166Z,24.07
2019-03-26T21:41:06.068Z,21.73
2019-03-26T21:43:34.793Z,19.80
2019-03-26T21:46:03.794Z,20.13
2019-03-26T21:48:32.619Z,23.17
2019-03-26T21:51:01.393Z,19.27
2019-03-26T21:53:30.574Z,22.37
2019-03-26T21:56:06.456Z,26.90
2019-03-26T21:58:30.067Z,23.40
2019-03-26T22:00:59.012Z,21.23
2019-03-26T22:03:27.777Z,27.63
2019-03-26T22:05:56.660Z,31.80
2019-03-26T22:08:25.965Z,33.73
2019-03-26T22:10:55.046Z,35.43
2019-03-26T22:13:24.286Z,28.53
2019-03-26T22:15:53.415Z,33.43
2019-03-26T22:18:22.490Z,31.33
2019-03-26T22:21:10.599Z,31.67
2019-03-26T22:23:39.374Z,31.63
2019-03-26T22:26:08.084Z,26.27
2019-03-26T22:28:37.408Z,22.63
2019-03-26T22:31:06.270Z,25.90
2019-03-26T22:33:34.992Z,23.53
2019-03-26T22:36:03.897Z,20.27
2019-03-26T22:38:32.721Z,18.40
2019-03-26T22:41:01.449Z,18.63
2019-03-26T22:43:30.158Z,16.13
2019-03-26T22:45:58.923Z,11.93
2019-03-26T22:48:27.706Z,20.33
2019-03-26T22:50:56.400Z,18.53
2019-03-26T22:53:25.075Z,17.80
2019-03-26T22:55:53.832Z,16.50
2019-03-26T22:58:22.576Z,16.27
2019-03-26T23:00:51.615Z,15.43
2019-03-26T23:03:20.272Z,18.60
2019-03-26T23:05:49.092Z,17.57
2019-03-26T23:08:18.008Z,18.37
2019-03-26T23:10:46.766Z,20.30
2019-03-26T23:13:15.528Z,19.73
2019-03-26T23:15:44.432Z,18.63
2019-03-26T23:18:13.185Z,21.13
2019-03-26T23:20:41.954Z,20.40
2019-03-26T23:23:10.636Z,22.63
2019-03-26T23:25:39.515Z,22.80
2019-03-26T23:28:08.374Z,21.43
2019-03-26T23:30:37.843Z,22.50
2019-03-26T23:33:06.610Z,18.73
2019-03-26T23:35:35.319Z,25.07
2019-03-26T23:38:04.100Z,22.87
2019-03-26T23:40:32.948Z,28.13
2019-03-26T23:43:01.805Z,24.53
2019-03-26T23:45:30.577Z,22.07
2019-03-26T23:47:59.390Z,27.07
2019-03-26T23:50:28.198Z,21.77
2019-03-26T23:52:57.005Z,22.90
2019-03-26T23:55:25.872Z,24.73
2019-03-26T23:57:56.086Z,21.50
